createdAt,value
2018-07-21T00:01:15.029Z,998.41
2018-07-21T00:02:29.017Z,998.4
2018-07-21T00:03:43.182Z,998.41
2018-07-21T00:04:57.650Z,998.48
2018-07-21T00:06:11.829Z,998.49
2018-07-21T00:07:26.284Z,998.42
2018-07-21T00:08:40.493Z,998.42
2018-07-21T00:09:55.078Z,998.39
2018-07-21T00:11:09.848Z,998.38
2018-07-21T00:12:24.268Z,998.41
2018-07-21T00:13:38.213Z,998.38
2018-07-21T00:14:53.054Z,998.4
2018-07-21T00:16:07.474Z,998.37
2018-07-21T00:17:22.150Z,998.38
2018-07-21T00:18:36.592Z,998.39
2018-07-21T00:19:51.402Z,998.36
2018-07-21T00:21:05.616Z,998.42
2018-07-21T00:22:20.319Z,998.42
2018-07-21T00:23:34.494Z,998.41
2018-07-21T00:24:48.682Z,998.41
2018-07-21T00:26:03.137Z,998.41
2018-07-21T00:27:16.824Z,998.41
2018-07-21T00:28:30.994Z,998.42
2018-07-21T00:29:45.442Z,998.42
2018-07-21T00:31:00.350Z,998.37
2018-07-21T00:32:14.779Z,998.38
2018-07-21T00:33:29.227Z,998.39
2018-07-21T00:34:43.637Z,998.37
2018-07-21T00:35:58.516Z,998.33
2018-07-21T00:37:12.194Z,998.35
2018-07-21T00:38:26.861Z,998.35
2018-07-21T00:39:41.535Z,998.33
2018-07-21T00:40:56.069Z,998.31
2018-07-21T00:42:10.538Z,998.28
2018-07-21T00:43:24.768Z,998.28
2018-07-21T00:44:39.486Z,998.23
2018-07-21T00:45:53.980Z,998.27
2018-07-21T00:47:08.706Z,998.3
2018-07-21T00:48:23.644Z,998.33
2018-07-21T00:49:37.859Z,998.39
2018-07-21T00:50:52.306Z,998.39
2018-07-21T00:52:07.189Z,998.39
2018-07-21T00:53:22.161Z,998.42
2018-07-21T00:54:36.585Z,998.36
2018-07-21T00:55:51.534Z,998.41
2018-07-21T00:57:06.868Z,998.41
2018-07-21T00:58:21.849Z,998.4
2018-07-21T00:59:36.297Z,998.42
2018-07-21T01:00:50.571Z,998.41
2018-07-21T01:02:04.810Z,998.46
2018-07-21T01:03:19.320Z,998.47
2018-07-21T01:04:33.522Z,998.52
2018-07-21T01:05:48.021Z,998.49
2018-07-21T01:07:02.717Z,998.5
2018-07-21T01:08:17.454Z,998.52
2018-07-21T01:09:32.172Z,998.52
2018-07-21T01:10:46.632Z,998.49
2018-07-21T01:12:01.254Z,998.47
2018-07-21T01:13:15.433Z,998.49
2018-07-21T01:14:29.616Z,998.49
2018-07-21T01:15:44.095Z,998.42
2018-07-21T01:16:58.558Z,998.39
2018-07-21T01:18:13.274Z,998.41
2018-07-21T01:19:27.743Z,998.36
2018-07-21T01:20:42.219Z,998.32
2018-07-21T01:21:57.188Z,998.3
2018-07-21T01:23:11.924Z,998.27
2018-07-21T01:24:26.633Z,998.27
2018-07-21T01:25:41.635Z,998.24
2018-07-21T01:26:56.082Z,998.27
2018-07-21T01:28:10.644Z,998.29
2018-07-21T01:29:25.042Z,998.31
2018-07-21T01:30:39.755Z,998.33
2018-07-21T01:31:54.667Z,998.31
2018-07-21T01:33:09.907Z,998.34
2018-07-21T01:34:24.619Z,998.36
2018-07-21T01:35:38.537Z,998.41
2018-07-21T01:36:52.210Z,998.41
2018-07-21T01:38:06.670Z,998.43
2018-07-21T01:39:20.610Z,998.46
2018-07-21T01:40:35.065Z,998.42
2018-07-21T01:41:49.745Z,998.42
2018-07-21T01:43:04.892Z,998.43
2018-07-21T01:44:19.372Z,998.39
2018-07-21T01:45:33.557Z,998.33
2018-07-21T01:46:48.470Z,998.34
2018-07-21T01:48:03.559Z,998.31
2018-07-21T01:49:18.301Z,998.26
2018-07-21T01:50:32.747Z,998.29
2018-07-21T01:51:46.705Z,998.33
2018-07-21T01:53:00.610Z,998.32
2018-07-21T01:54:15.493Z,998.35
2018-07-21T01:55:29.712Z,998.33
2018-07-21T01:56:44.156Z,998.31
2018-07-21T01:57:58.611Z,998.33
2018-07-21T01:59:13.065Z,998.37
2018-07-21T02:00:27.015Z,998.37
2018-07-21T02:01:41.466Z,998.38
2018-07-21T02:02:55.695Z,998.39
2018-07-21T02:04:10.648Z,998.38
2018-07-21T02:05:24.815Z,998.4
2018-07-21T02:06:39.245Z,998.35
2018-07-21T02:07:53.192Z,998.39
2018-07-21T02:09:07.957Z,998.36
2018-07-21T02:10:22.626Z,998.4
2018-07-21T02:11:37.065Z,998.37
2018-07-21T02:12:51.768Z,998.37
2018-07-21T02:14:06.868Z,998.36
2018-07-21T02:15:21.320Z,998.35
2018-07-21T02:16:35.479Z,998.36
2018-07-21T02:17:49.953Z,998.34
2018-07-21T02:19:04.607Z,998.32
2018-07-21T02:20:19.425Z,998.31
2018-07-21T02:21:33.652Z,998.32
2018-07-21T02:22:48.387Z,998.28
2018-07-21T02:24:02.855Z,998.32
2018-07-21T02:25:17.908Z,998.33
2018-07-21T02:26:31.835Z,998.31
2018-07-21T02:27:46.555Z,998.31
2018-07-21T02:29:01.544Z,998.38
2018-07-21T02:30:15.745Z,998.29
2018-07-21T02:31:30.445Z,998.34
2018-07-21T02:32:44.375Z,998.32
2018-07-21T02:33:58.813Z,998.32
2018-07-21T02:35:12.841Z,998.34
2018-07-21T02:36:27.503Z,998.32
2018-07-21T02:37:42.400Z,998.3
2018-07-21T02:38:57.113Z,998.29
2018-07-21T02:40:11.538Z,998.31
2018-07-21T02:41:26.243Z,998.31
2018-07-21T02:42:41.226Z,998.3
2018-07-21T02:43:55.913Z,998.29
2018-07-21T02:45:10.462Z,998.32
2018-07-21T02:46:25.401Z,998.3
2018-07-21T02:47:39.860Z,998.29
2018-07-21T02:48:54.318Z,998.29
2018-07-21T02:50:08.903Z,998.29
2018-07-21T02:51:23.124Z,998.27
2018-07-21T02:52:37.610Z,998.29
2018-07-21T02:53:52.062Z,998.31
2018-07-21T02:55:06.245Z,998.32
2018-07-21T02:56:20.542Z,998.31
2018-07-21T02:57:35.517Z,998.3
2018-07-21T02:58:49.986Z,998.27
2018-07-21T03:00:04.195Z,998.23
2018-07-21T03:01:18.930Z,998.23
2018-07-21T03:02:33.119Z,998.23
2018-07-21T03:03:47.330Z,998.22
2018-07-21T03:05:01.752Z,998.2
2018-07-21T03:06:16.282Z,998.18
2018-07-21T03:07:30.731Z,998.18
2018-07-21T03:08:45.443Z,998.15
2018-07-21T03:10:00.203Z,998.19
2018-07-21T03:11:14.449Z,998.16
2018-07-21T03:12:28.649Z,998.23
2018-07-21T03:13:43.364Z,998.23
2018-07-21T03:14:58.101Z,998.26
2018-07-21T03:16:12.590Z,998.3
2018-07-21T03:17:27.026Z,998.3
2018-07-21T03:18:41.698Z,998.35
2018-07-21T03:19:55.398Z,998.39
2018-07-21T03:21:10.251Z,998.4
2018-07-21T03:22:24.931Z,998.42
2018-07-21T03:23:39.893Z,998.44
2018-07-21T03:24:54.087Z,998.46
2018-07-21T03:26:08.289Z,998.42
2018-07-21T03:27:23.369Z,998.43
2018-07-21T03:28:37.329Z,998.45
2018-07-21T03:29:51.748Z,998.45
2018-07-21T03:31:06.176Z,998.45
2018-07-21T03:32:20.652Z,998.44
2018-07-21T03:33:35.355Z,998.47
2018-07-21T03:34:50.060Z,998.48
2018-07-21T03:36:04.489Z,998.52
2018-07-21T03:37:19.219Z,998.54
2018-07-21T03:38:33.163Z,998.56
2018-07-21T03:39:47.812Z,998.63
2018-07-21T03:41:02.786Z,998.64
2018-07-21T03:42:17.043Z,998.67
2018-07-21T03:43:30.965Z,998.67
2018-07-21T03:44:45.168Z,998.7
2018-07-21T03:45:59.872Z,998.71
2018-07-21T03:47:14.264Z,998.73
2018-07-21T03:48:28.958Z,998.69
2018-07-21T03:49:43.388Z,998.72
2018-07-21T03:50:58.333Z,998.71
2018-07-21T03:52:12.661Z,998.76
2018-07-21T03:53:27.088Z,998.77
2018-07-21T03:54:41.532Z,998.75
2018-07-21T03:55:55.162Z,998.74
2018-07-21T03:57:09.584Z,998.74
2018-07-21T03:58:24.177Z,998.69
2018-07-21T03:59:38.633Z,998.66
2018-07-21T04:00:53.380Z,998.63
2018-07-21T04:02:07.832Z,998.65
2018-07-21T04:03:22.522Z,998.61
2018-07-21T04:04:37.224Z,998.64
2018-07-21T04:05:51.941Z,998.57
2018-07-21T04:07:06.158Z,998.65
2018-07-21T04:08:20.891Z,998.6
2018-07-21T04:09:35.410Z,998.54
2018-07-21T04:10:49.874Z,998.53
2018-07-21T04:12:04.557Z,998.56
2018-07-21T04:13:18.923Z,998.63
2018-07-21T04:14:33.650Z,998.65
2018-07-21T04:15:48.080Z,998.58
2018-07-21T04:17:02.543Z,998.57
2018-07-21T04:18:17.228Z,998.53
2018-07-21T04:19:32.167Z,998.54
2018-07-21T04:20:47.121Z,998.48
2018-07-21T04:22:01.617Z,998.55
2018-07-21T04:23:15.693Z,998.55
2018-07-21T04:24:30.372Z,998.61
2018-07-21T04:25:44.839Z,998.62
2018-07-21T04:26:59.002Z,998.61
2018-07-21T04:28:13.709Z,998.62
2018-07-21T04:29:28.128Z,998.67
2018-07-21T04:30:42.570Z,998.73
2018-07-21T04:31:57.528Z,998.7
2018-07-21T04:33:11.719Z,998.74
2018-07-21T04:34:26.736Z,998.69
2018-07-21T04:35:40.949Z,998.68
2018-07-21T04:36:55.621Z,998.65
2018-07-21T04:38:10.504Z,998.67
2018-07-21T04:39:25.828Z,998.68
2018-07-21T04:40:39.508Z,998.67
2018-07-21T04:41:54.204Z,998.71
2018-07-21T04:43:08.601Z,998.68
2018-07-21T04:44:23.332Z,998.71
2018-07-21T04:45:37.981Z,998.67
2018-07-21T04:46:52.669Z,998.67
2018-07-21T04:48:07.080Z,998.69
2018-07-21T04:49:21.717Z,998.66
2018-07-21T04:50:35.697Z,998.65
2018-07-21T04:51:49.901Z,998.63
2018-07-21T04:53:04.343Z,998.64
2018-07-21T04:54:19.037Z,998.64
2018-07-21T04:55:33.473Z,998.62
2018-07-21T04:56:48.194Z,998.58
2018-07-21T04:58:03.158Z,998.62
2018-07-21T04:59:17.616Z,998.63
2018-07-21T05:00:31.805Z,998.6
2018-07-21T05:01:46.949Z,998.58
2018-07-21T05:03:01.130Z,998.54
2018-07-21T05:04:15.598Z,998.51
2018-07-21T05:05:30.672Z,998.48
2018-07-21T05:06:45.867Z,998.46
2018-07-21T05:08:00.629Z,998.49
2018-07-21T05:09:15.080Z,998.46
2018-07-21T05:10:29.461Z,998.44
2018-07-21T05:11:43.878Z,998.48
2018-07-21T05:12:58.809Z,998.52
2018-07-21T05:14:13.490Z,998.53
2018-07-21T05:15:27.655Z,998.57
2018-07-21T05:16:41.828Z,998.59
2018-07-21T05:17:56.251Z,998.6
2018-07-21T05:19:10.440Z,998.58
2018-07-21T05:20:25.469Z,998.62
2018-07-21T05:21:40.198Z,998.59
2018-07-21T05:22:54.395Z,998.62
2018-07-21T05:24:08.578Z,998.66
2018-07-21T05:25:22.843Z,998.65
2018-07-21T05:26:37.036Z,998.66
2018-07-21T05:27:51.520Z,998.74
2018-07-21T05:29:06.220Z,998.75
2018-07-21T05:30:21.072Z,998.72
2018-07-21T05:31:35.816Z,998.73
2018-07-21T05:32:49.491Z,998.71
2018-07-21T05:34:03.688Z,998.73
2018-07-21T05:35:17.884Z,998.78
2018-07-21T05:36:32.906Z,998.78
2018-07-21T05:37:47.637Z,998.79
2018-07-21T05:39:02.077Z,998.79
2018-07-21T05:40:16.495Z,998.79
2018-07-21T05:41:31.207Z,998.81
2018-07-21T05:42:45.688Z,998.79
2018-07-21T05:44:00.758Z,998.76
2018-07-21T05:45:15.716Z,998.79
2018-07-21T05:46:30.290Z,998.78
2018-07-21T05:47:44.993Z,998.81
2018-07-21T05:48:59.441Z,998.79
2018-07-21T05:50:14.134Z,998.82
2018-07-21T05:51:28.327Z,998.81
2018-07-21T05:52:42.763Z,998.86
2018-07-21T05:53:57.450Z,998.84
2018-07-21T05:55:11.920Z,998.93
2018-07-21T05:56:25.910Z,998.95
2018-07-21T05:57:40.100Z,998.91
2018-07-21T05:58:53.819Z,998.93
2018-07-21T06:00:08.297Z,998.92
2018-07-21T06:01:23.106Z,998.95
2018-07-21T06:02:37.505Z,999.01
2018-07-21T06:03:51.721Z,999
2018-07-21T06:05:06.182Z,999.02
2018-07-21T06:06:20.948Z,999.03
2018-07-21T06:07:34.958Z,999.12
2018-07-21T06:08:48.682Z,999.15
2018-07-21T06:10:03.110Z,999.16
2018-07-21T06:11:17.079Z,999.18
2018-07-21T06:12:31.648Z,999.22
2018-07-21T06:13:46.398Z,999.19
2018-07-21T06:15:01.078Z,999.21
2018-07-21T06:16:16.039Z,999.22
2018-07-21T06:17:31.002Z,999.2
2018-07-21T06:18:45.533Z,999.24
2018-07-21T06:20:00.323Z,999.25
2018-07-21T06:21:15.130Z,999.26
2018-07-21T06:22:29.840Z,999.32
2018-07-21T06:23:44.651Z,999.28
2018-07-21T06:24:59.470Z,999.34
2018-07-21T06:26:14.592Z,999.36
2018-07-21T06:27:29.005Z,999.34
2018-07-21T06:28:43.136Z,999.34
2018-07-21T06:29:57.624Z,999.39
2018-07-21T06:31:12.149Z,999.39
2018-07-21T06:32:26.781Z,999.39
2018-07-21T06:33:41.276Z,999.36
2018-07-21T06:34:55.494Z,999.34
2018-07-21T06:36:09.722Z,999.34
2018-07-21T06:37:24.420Z,999.39
2018-07-21T06:38:39.274Z,999.39
2018-07-21T06:39:53.456Z,999.38
2018-07-21T06:41:07.926Z,999.34
2018-07-21T06:42:22.837Z,999.39
2018-07-21T06:43:37.167Z,999.38
2018-07-21T06:44:51.752Z,999.36
2018-07-21T06:46:06.222Z,999.37
2018-07-21T06:47:20.711Z,999.39
2018-07-21T06:48:35.784Z,999.33
2018-07-21T06:49:50.766Z,999.33
2018-07-21T06:51:06.202Z,999.37
2018-07-21T06:52:20.113Z,999.39
2018-07-21T06:53:34.680Z,999.41
2018-07-21T06:54:49.413Z,999.39
2018-07-21T06:56:04.564Z,999.39
2018-07-21T06:57:19.004Z,999.42
2018-07-21T06:58:33.687Z,999.39
2018-07-21T06:59:48.389Z,999.38
2018-07-21T07:01:02.596Z,999.42
2018-07-21T07:02:17.071Z,999.42
2018-07-21T07:03:32.297Z,999.41
2018-07-21T07:04:45.790Z,999.41
2018-07-21T07:06:00.221Z,999.41
2018-07-21T07:07:14.667Z,999.45
2018-07-21T07:08:29.629Z,999.46
2018-07-21T07:09:44.306Z,999.45
2018-07-21T07:10:58.518Z,999.46
2018-07-21T07:12:13.512Z,999.5
2018-07-21T07:13:28.425Z,999.52
2018-07-21T07:14:43.268Z,999.48
2018-07-21T07:15:58.052Z,999.46
2018-07-21T07:17:12.273Z,999.47
2018-07-21T07:18:26.495Z,999.47
2018-07-21T07:19:47.064Z,999.5
2018-07-21T07:21:01.215Z,999.53
2018-07-21T07:22:15.415Z,999.53
2018-07-21T07:23:30.359Z,999.52
2018-07-21T07:24:45.031Z,999.57
2018-07-21T07:25:59.753Z,999.52
2018-07-21T07:27:13.934Z,999.53
2018-07-21T07:28:28.526Z,999.53
2018-07-21T07:29:43.326Z,999.5
2018-07-21T07:30:57.772Z,999.54
2018-07-21T07:32:12.459Z,999.48
2018-07-21T07:33:26.639Z,999.48
2018-07-21T07:34:41.585Z,999.49
2018-07-21T07:35:56.549Z,999.49
2018-07-21T07:37:11.554Z,999.5
2018-07-21T07:38:25.995Z,999.53
2018-07-21T07:39:40.998Z,999.53
2018-07-21T07:40:55.447Z,999.52
2018-07-21T07:42:09.929Z,999.55
2018-07-21T07:43:25.169Z,999.57
2018-07-21T07:44:40.118Z,999.61
2018-07-21T07:45:55.080Z,999.63
2018-07-21T07:47:09.281Z,999.6
2018-07-21T07:48:23.798Z,999.63
2018-07-21T07:49:38.441Z,999.56
2018-07-21T07:50:52.873Z,999.58
2018-07-21T07:52:07.590Z,999.6
2018-07-21T07:53:22.051Z,999.62
2018-07-21T07:54:36.506Z,999.64
2018-07-21T07:55:50.736Z,999.62
2018-07-21T07:57:05.490Z,999.66
2018-07-21T07:58:20.430Z,999.62
2018-07-21T07:59:34.814Z,999.66
2018-07-21T08:00:49.907Z,999.61
2018-07-21T08:02:04.421Z,999.65
2018-07-21T08:03:19.112Z,999.63
2018-07-21T08:04:33.834Z,999.62
2018-07-21T08:05:48.775Z,999.61
2018-07-21T08:07:03.505Z,999.64
2018-07-21T08:08:18.487Z,999.64
2018-07-21T08:09:33.961Z,999.67
2018-07-21T08:10:49.183Z,999.63
2018-07-21T08:12:03.656Z,999.67
2018-07-21T08:13:18.355Z,999.69
2018-07-21T08:14:32.559Z,999.69
2018-07-21T08:15:47.416Z,999.65
2018-07-21T08:17:01.592Z,999.65
2018-07-21T08:18:15.841Z,999.65
2018-07-21T08:19:30.231Z,999.65
2018-07-21T08:20:44.881Z,999.7
2018-07-21T08:21:59.358Z,999.66
2018-07-21T08:23:13.809Z,999.66
2018-07-21T08:24:28.315Z,999.71
2018-07-21T08:25:43.269Z,999.72
2018-07-21T08:26:57.759Z,999.75
2018-07-21T08:28:12.701Z,999.75
2018-07-21T08:29:27.859Z,999.79
2018-07-21T08:30:43.091Z,999.76
2018-07-21T08:31:57.078Z,999.77
2018-07-21T08:33:11.306Z,999.73
2018-07-21T08:34:25.741Z,999.75
2018-07-21T08:35:40.974Z,999.75
2018-07-21T08:36:55.903Z,999.77
2018-07-21T08:38:10.348Z,999.74
2018-07-21T08:39:25.110Z,999.74
2018-07-21T08:40:39.855Z,999.77
2018-07-21T08:41:54.640Z,999.8
2018-07-21T08:43:08.869Z,999.81
2018-07-21T08:44:23.568Z,999.83
2018-07-21T08:45:39.689Z,999.85
2018-07-21T08:46:54.473Z,999.85
2018-07-21T08:48:08.979Z,999.86
2018-07-21T08:49:23.934Z,999.87
2018-07-21T08:50:38.458Z,999.88
2018-07-21T08:51:52.990Z,999.92
2018-07-21T08:53:07.232Z,999.92
2018-07-21T08:54:21.721Z,999.93
2018-07-21T08:55:36.254Z,999.92
2018-07-21T08:56:50.909Z,999.9
2018-07-21T08:58:05.132Z,999.92
2018-07-21T08:59:19.856Z,999.98
2018-07-21T09:00:34.067Z,999.86
2018-07-21T09:01:48.442Z,999.95
2018-07-21T09:03:02.952Z,999.99
2018-07-21T09:04:17.465Z,999.99
2018-07-21T09:05:31.473Z,999.92
2018-07-21T09:06:46.222Z,1000.01
2018-07-21T09:08:00.422Z,1000.06
2018-07-21T09:09:14.636Z,1000.05
2018-07-21T09:10:29.116Z,1000.12
2018-07-21T09:11:43.919Z,1000.1
2018-07-21T09:12:58.649Z,1000.15
2018-07-21T09:14:12.773Z,1000.18
2018-07-21T09:15:27.509Z,1000.18
2018-07-21T09:16:42.512Z,1000.23
2018-07-21T09:17:56.784Z,1000.25
2018-07-21T09:19:10.775Z,1000.28
2018-07-21T09:20:25.523Z,1000.28
2018-07-21T09:21:40.287Z,1000.27
2018-07-21T09:22:54.840Z,1000.3
2018-07-21T09:24:09.791Z,1000.29
2018-07-21T09:25:24.250Z,1000.29
2018-07-21T09:26:38.980Z,1000.24
2018-07-21T09:27:53.709Z,1000.34
2018-07-21T09:29:08.040Z,1000.37
2018-07-21T09:30:23.003Z,1000.36
2018-07-21T09:31:37.205Z,1000.38
2018-07-21T09:32:52.130Z,1000.45
2018-07-21T09:34:06.613Z,1000.44
2018-07-21T09:35:21.213Z,1000.46
2018-07-21T09:36:35.925Z,1000.42
2018-07-21T09:37:50.502Z,1000.48
2018-07-21T09:39:04.959Z,1000.52
2018-07-21T09:40:19.959Z,1000.46
2018-07-21T09:41:34.180Z,1000.53
2018-07-21T09:42:49.345Z,1000.6
2018-07-21T09:44:04.095Z,1000.54
2018-07-21T09:45:18.608Z,1000.58
2018-07-21T09:46:32.863Z,1000.63
2018-07-21T09:47:48.136Z,1000.66
2018-07-21T09:49:02.615Z,1000.68
2018-07-21T09:50:16.805Z,1000.66
2018-07-21T09:51:31.561Z,1000.69
2018-07-21T09:52:46.314Z,1000.64
2018-07-21T09:54:00.597Z,1000.73
2018-07-21T09:55:14.574Z,1000.69
2018-07-21T09:56:29.080Z,1000.79
2018-07-21T09:57:43.542Z,1000.73
2018-07-21T09:58:58.254Z,1000.75
2018-07-21T10:00:12.750Z,1000.73
2018-07-21T10:01:27.008Z,1000.78
2018-07-21T10:02:41.326Z,1000.79
2018-07-21T10:03:56.132Z,1000.82
2018-07-21T10:05:10.335Z,1000.82
2018-07-21T10:06:25.270Z,1000.84
2018-07-21T10:07:39.981Z,1000.86
2018-07-21T10:08:54.387Z,1000.85
2018-07-21T10:10:08.585Z,1000.88
2018-07-21T10:11:23.570Z,1000.86
2018-07-21T10:12:38.565Z,1000.94
2018-07-21T10:13:53.952Z,1000.97
2018-07-21T10:15:08.149Z,1000.94
2018-07-21T10:16:22.115Z,1001.02
2018-07-21T10:17:36.334Z,1000.97
2018-07-21T10:18:51.374Z,1001
2018-07-21T10:20:06.090Z,1001.05
2018-07-21T10:21:20.373Z,1001.05
2018-07-21T10:22:34.833Z,1001.05
2018-07-21T10:23:49.047Z,1001.03
2018-07-21T10:25:03.689Z,1001.06
2018-07-21T10:26:22.861Z,1001.03
2018-07-21T10:27:37.364Z,1001.05
2018-07-21T10:28:52.069Z,1001.08
2018-07-21T10:30:06.868Z,1001.09
2018-07-21T10:31:21.267Z,1001.12
2018-07-21T10:32:35.755Z,1001.1
2018-07-21T10:33:50.531Z,1001.18
2018-07-21T10:35:05.546Z,1001.17
2018-07-21T10:36:20.036Z,1001.11
2018-07-21T10:37:34.020Z,1001.11
2018-07-21T10:38:49.253Z,1001.1
2018-07-21T10:40:04.091Z,1001.16
2018-07-21T10:41:18.860Z,1001.13
2018-07-21T10:42:33.662Z,1001.15
2018-07-21T10:43:48.367Z,1001.22
2018-07-21T10:45:03.091Z,1001.16
2018-07-21T10:46:18.107Z,1001.23
2018-07-21T10:47:32.092Z,1001.23
2018-07-21T10:48:46.825Z,1001.23
2018-07-21T10:50:01.173Z,1001.27
2018-07-21T10:51:15.613Z,1001.25
2018-07-21T10:52:30.295Z,1001.31
2018-07-21T10:53:45.023Z,1001.33
2018-07-21T10:54:59.460Z,1001.3
2018-07-21T10:56:14.427Z,1001.32
2018-07-21T10:57:29.348Z,1001.34
2018-07-21T10:58:44.336Z,1001.31
2018-07-21T10:59:59.253Z,1001.29
2018-07-21T11:01:13.863Z,1001.3
2018-07-21T11:02:28.893Z,1001.3
2018-07-21T11:03:43.130Z,1001.31
2018-07-21T11:04:57.979Z,1001.29
2018-07-21T11:06:12.886Z,1001.25
2018-07-21T11:07:27.321Z,1001.29
2018-07-21T11:08:42.270Z,1001.25
2018-07-21T11:09:57.132Z,1001.29
2018-07-21T11:11:11.649Z,1001.23
2018-07-21T11:12:26.155Z,1001.31
2018-07-21T11:13:41.143Z,1001.29
2018-07-21T11:14:55.852Z,1001.34
2018-07-21T11:16:11.122Z,1001.34
2018-07-21T11:17:26.300Z,1001.35
2018-07-21T11:18:40.524Z,1001.35
2018-07-21T11:19:55.227Z,1001.34
2018-07-21T11:21:10.251Z,1001.35
2018-07-21T11:22:24.963Z,1001.37
2018-07-21T11:23:39.903Z,1001.4
2018-07-21T11:24:54.758Z,1001.38
2018-07-21T11:26:09.372Z,1001.41
2018-07-21T11:27:24.109Z,1001.38
2018-07-21T11:28:38.313Z,1001.38
2018-07-21T11:29:52.300Z,1001.43
2018-07-21T11:31:07.160Z,1001.48
2018-07-21T11:32:21.645Z,1001.47
2018-07-21T11:33:36.110Z,1001.5
2018-07-21T11:34:50.618Z,1001.47
2018-07-21T11:36:05.751Z,1001.48
2018-07-21T11:37:21.646Z,1001.48
2018-07-21T11:38:36.095Z,1001.47
2018-07-21T11:39:50.402Z,1001.5
2018-07-21T11:41:04.931Z,1001.5
2018-07-21T11:42:19.424Z,1001.45
2018-07-21T11:43:34.134Z,1001.48
2018-07-21T11:44:48.617Z,1001.47
2018-07-21T11:46:03.051Z,1001.49
2018-07-21T11:47:16.993Z,1001.5
2018-07-21T11:48:31.945Z,1001.51
2018-07-21T11:49:46.663Z,1001.52
2018-07-21T11:51:01.797Z,1001.58
2018-07-21T11:52:16.561Z,1001.56
2018-07-21T11:53:31.011Z,1001.56
2018-07-21T11:54:46.168Z,1001.61
2018-07-21T11:56:01.661Z,1001.57
2018-07-21T11:57:16.687Z,1001.58
2018-07-21T11:58:32.169Z,1001.55
2018-07-21T11:59:47.473Z,1001.59
2018-07-21T12:01:02.000Z,1001.61
2018-07-21T12:02:16.174Z,1001.64
2018-07-21T12:03:30.380Z,1001.61
2018-07-21T12:04:45.110Z,1001.65
2018-07-21T12:06:00.096Z,1001.64
2018-07-21T12:07:14.747Z,1001.62
2018-07-21T12:08:29.232Z,1001.63
2018-07-21T12:09:44.028Z,1001.59
2018-07-21T12:10:58.281Z,1001.58
2018-07-21T12:12:13.456Z,1001.57
2018-07-21T12:13:28.556Z,1001.63
2018-07-21T12:14:44.202Z,1001.62
2018-07-21T12:15:58.374Z,1001.59
2018-07-21T12:17:13.189Z,1001.58
2018-07-21T12:18:27.177Z,1001.56
2018-07-21T12:19:41.713Z,1001.61
2018-07-21T12:20:56.211Z,1001.59
2018-07-21T12:22:10.792Z,1001.57
2018-07-21T12:23:25.302Z,1001.59
2018-07-21T12:24:39.536Z,1001.56
2018-07-21T12:25:54.034Z,1001.57
2018-07-21T12:27:08.969Z,1001.55
2018-07-21T12:28:23.857Z,1001.55
2018-07-21T12:29:38.061Z,1001.54
2018-07-21T12:30:52.551Z,1001.53
2018-07-21T12:32:06.908Z,1001.48
2018-07-21T12:33:21.419Z,1001.48
2018-07-21T12:34:35.977Z,1001.49
2018-07-21T12:35:50.716Z,1001.49
2018-07-21T12:37:05.190Z,1001.48
2018-07-21T12:38:19.964Z,1001.52
2018-07-21T12:39:34.241Z,1001.53
2018-07-21T12:40:48.725Z,1001.5
2018-07-21T12:42:03.521Z,1001.55
2018-07-21T12:43:18.006Z,1001.57
2018-07-21T12:44:32.532Z,1001.53
2018-07-21T12:45:47.416Z,1001.55
2018-07-21T12:47:02.167Z,1001.51
2018-07-21T12:48:17.686Z,1001.49
2018-07-21T12:49:31.911Z,1001.49
2018-07-21T12:50:46.105Z,1001.47
2018-07-21T12:52:00.523Z,1001.46
2018-07-21T12:53:15.605Z,1001.4
2018-07-21T12:54:29.778Z,1001.43
2018-07-21T12:55:57.516Z,1001.42
2018-07-21T12:57:12.198Z,1001.4
2018-07-21T12:58:27.242Z,1001.39
2018-07-21T12:59:41.986Z,1001.4
2018-07-21T13:00:56.727Z,1001.39
2018-07-21T13:02:11.202Z,1001.42
2018-07-21T13:03:25.697Z,1001.39
2018-07-21T13:04:40.405Z,1001.38
2018-07-21T13:05:55.153Z,1001.38
2018-07-21T13:07:09.367Z,1001.36
2018-07-21T13:08:23.732Z,1001.34
2018-07-21T13:09:38.710Z,1001.37
2018-07-21T13:10:53.891Z,1001.32
2018-07-21T13:12:08.381Z,1001.3
2018-07-21T13:13:22.949Z,1001.29
2018-07-21T13:14:37.473Z,1001.29
2018-07-21T13:15:51.429Z,1001.24
2018-07-21T13:17:06.233Z,1001.21
2018-07-21T13:18:20.841Z,1001.26
2018-07-21T13:19:35.028Z,1001.25
2018-07-21T13:20:49.669Z,1001.24
2018-07-21T13:22:03.890Z,1001.24
2018-07-21T13:23:18.747Z,1001.22
2018-07-21T13:24:33.908Z,1001.23
2018-07-21T13:25:48.357Z,1001.18
2018-07-21T13:27:03.074Z,1001.14
2018-07-21T13:28:18.091Z,1001.18
2018-07-21T13:29:32.066Z,1001.18
2018-07-21T13:30:46.536Z,1001.17
2018-07-21T13:32:01.285Z,1001.14
2018-07-21T13:33:16.095Z,1001.13
2018-07-21T13:34:30.889Z,1001.13
2018-07-21T13:35:45.380Z,1001.12
2018-07-21T13:36:59.122Z,1001.08
2018-07-21T13:38:13.442Z,1001.14
2018-07-21T13:39:27.898Z,1001.11
2018-07-21T13:40:42.378Z,1001.15
2018-07-21T13:41:57.358Z,1001.11
2018-07-21T13:43:11.564Z,1001.15
2018-07-21T13:44:26.050Z,1001.13
2018-07-21T13:45:40.432Z,1001.13
2018-07-21T13:46:55.387Z,1001.09
2018-07-21T13:48:10.364Z,1001.11
2018-07-21T13:49:25.149Z,1001.09
2018-07-21T13:50:39.362Z,1001.09
2018-07-21T13:51:54.085Z,1001.1
2018-07-21T13:53:08.302Z,1001.1
2018-07-21T13:54:22.628Z,1001.06
2018-07-21T13:55:37.398Z,1001.04
2018-07-21T13:56:52.355Z,1001.08
2018-07-21T13:58:06.921Z,1001.05
2018-07-21T13:59:21.625Z,1001.04
2018-07-21T14:00:36.834Z,1001.04
2018-07-21T14:01:51.626Z,1001.06
2018-07-21T14:03:06.654Z,1001.03
2018-07-21T14:04:21.347Z,1001.02
2018-07-21T14:05:36.087Z,1000.98
2018-07-21T14:06:50.827Z,1000.97
2018-07-21T14:08:05.876Z,1000.92
2018-07-21T14:09:20.948Z,1000.95
2018-07-21T14:10:35.410Z,1000.95
2018-07-21T14:11:49.433Z,1000.87
2018-07-21T14:13:03.906Z,1000.9
2018-07-21T14:14:24.699Z,1000.9
2018-07-21T14:15:39.666Z,1000.9
2018-07-21T14:16:54.801Z,1000.89
2018-07-21T14:18:09.736Z,1000.9
2018-07-21T14:19:24.398Z,1000.88
2018-07-21T14:20:38.887Z,1000.88
2018-07-21T14:21:53.589Z,1000.86
2018-07-21T14:23:07.883Z,1000.87
2018-07-21T14:24:22.120Z,1000.83
2018-07-21T14:25:37.005Z,1000.79
2018-07-21T14:26:51.522Z,1000.81
2018-07-21T14:28:06.274Z,1000.8
2018-07-21T14:29:21.032Z,1000.84
2018-07-21T14:30:36.122Z,1000.76
2018-07-21T14:31:50.850Z,1000.81
2018-07-21T14:33:05.307Z,1000.79
2018-07-21T14:34:20.691Z,1000.82
2018-07-21T14:35:35.548Z,1000.8
2018-07-21T14:36:50.354Z,1000.85
2018-07-21T14:38:05.074Z,1000.87
2018-07-21T14:39:19.528Z,1000.86
2018-07-21T14:40:33.840Z,1000.89
2018-07-21T14:41:48.879Z,1000.87
2018-07-21T14:43:03.207Z,1000.86
2018-07-21T14:44:17.428Z,1000.85
2018-07-21T14:45:32.428Z,1000.85
2018-07-21T14:46:46.881Z,1000.83
2018-07-21T14:48:00.828Z,1000.88
2018-07-21T14:49:15.303Z,1000.88
2018-07-21T14:50:29.607Z,1000.87
2018-07-21T14:51:44.331Z,1000.9
2018-07-21T14:52:59.055Z,1000.86
2018-07-21T14:54:13.775Z,1000.84
2018-07-21T14:55:28.541Z,1000.85
2018-07-21T14:56:42.997Z,1000.85
2018-07-21T14:57:57.486Z,1000.85
2018-07-21T14:59:12.224Z,1000.89
2018-07-21T15:00:26.592Z,1000.91
2018-07-21T15:01:41.086Z,1000.91
2018-07-21T15:02:55.481Z,1000.85
2018-07-21T15:04:09.709Z,1000.86
2018-07-21T15:05:24.177Z,1000.84
2018-07-21T15:06:39.495Z,1000.83
2018-07-21T15:07:55.057Z,1000.81
2018-07-21T15:09:09.749Z,1000.82
2018-07-21T15:10:24.231Z,1000.83
2018-07-21T15:11:53.091Z,1000.79
2018-07-21T15:13:07.321Z,1000.76
2018-07-21T15:14:21.259Z,1000.72
2018-07-21T15:15:36.145Z,1000.75
2018-07-21T15:16:51.257Z,1000.78
2018-07-21T15:18:05.716Z,1000.73
2018-07-21T15:19:20.190Z,1000.68
2018-07-21T15:20:35.226Z,1000.73
2018-07-21T15:21:50.569Z,1000.72
2018-07-21T15:23:05.569Z,1000.69